createdAt,value
2019-05-19T00:01:46.430Z,15.95
2019-05-19T00:04:15.199Z,15.82
2019-05-19T00:06:43.933Z,15.82
2019-05-19T00:09:12.760Z,15.94
2019-05-19T00:11:41.542Z,16.08
2019-05-19T00:14:10.201Z,15.95
2019-05-19T00:16:38.867Z,15.83
2019-05-19T00:19:07.645Z,15.78
2019-05-19T00:21:36.388Z,15.81
2019-05-19T00:24:05.083Z,15.79
2019-05-19T00:26:33.907Z,15.70
2019-05-19T00:29:02.574Z,15.57
2019-05-19T00:31:31.299Z,15.64
2019-05-19T00:33:59.944Z,15.60
2019-05-19T00:36:28.621Z,15.72
2019-05-19T00:38:57.268Z,15.64
2019-05-19T00:41:26.048Z,15.62
2019-05-19T00:43:54.732Z,15.69
2019-05-19T00:46:23.880Z,15.64
2019-05-19T00:48:52.657Z,15.77
2019-05-19T00:51:22.113Z,16.27
2019-05-19T00:53:50.757Z,16.22
2019-05-19T00:56:20.166Z,15.88
2019-05-19T00:58:50.092Z,15.75
2019-05-19T01:01:18.821Z,16.15
2019-05-19T01:03:47.536Z,15.89
2019-05-19T01:06:16.267Z,15.83
2019-05-19T01:08:45.006Z,15.68
2019-05-19T01:11:13.711Z,15.51
2019-05-19T01:13:42.382Z,15.54
2019-05-19T01:16:11.029Z,15.56
2019-05-19T01:18:39.797Z,15.31
2019-05-19T01:21:08.510Z,15.34
2019-05-19T01:23:37.178Z,15.24
2019-05-19T01:26:05.925Z,15.31
2019-05-19T01:28:34.655Z,15.17
2019-05-19T01:31:03.374Z,15.06
2019-05-19T01:33:33.895Z,15.28
2019-05-19T01:36:02.614Z,15.29
2019-05-19T01:38:31.342Z,15.33
2019-05-19T01:40:59.999Z,15.12
2019-05-19T01:43:28.729Z,15.13
2019-05-19T01:45:57.496Z,14.99
2019-05-19T01:48:28.033Z,15.02
2019-05-19T01:50:56.516Z,15.17
2019-05-19T01:53:25.293Z,15.24
2019-05-19T01:55:54.032Z,15.15
2019-05-19T01:58:22.756Z,15.52
2019-05-19T02:00:51.454Z,15.32
2019-05-19T02:03:20.196Z,15.49
2019-05-19T02:05:48.914Z,15.42
2019-05-19T02:08:17.650Z,15.34
2019-05-19T02:10:46.338Z,15.41
2019-05-19T02:13:15.006Z,15.17
2019-05-19T02:15:43.863Z,14.68
2019-05-19T02:18:12.588Z,14.89
2019-05-19T02:20:41.338Z,14.71
2019-05-19T02:23:10.033Z,14.81
2019-05-19T02:25:38.709Z,14.94
2019-05-19T02:28:07.403Z,15.02
2019-05-19T02:30:36.183Z,14.90
2019-05-19T02:33:04.843Z,14.95
2019-05-19T02:35:33.489Z,15.01
2019-05-19T02:38:02.251Z,14.97
2019-05-19T02:40:33.939Z,14.97
2019-05-19T02:43:03.325Z,14.94
2019-05-19T02:45:34.285Z,14.98
2019-05-19T02:48:04.218Z,14.93
2019-05-19T02:50:50.783Z,14.96
2019-05-19T02:53:06.585Z,14.93
2019-05-19T02:55:36.618Z,15.12
2019-05-19T02:58:06.330Z,15.53
2019-05-19T03:00:40.518Z,15.35
2019-05-19T03:03:09.570Z,15.16
2019-05-19T03:05:38.885Z,15.34
2019-05-19T03:08:07.617Z,15.11
2019-05-19T03:10:36.344Z,15.09
2019-05-19T03:13:05.016Z,15.61
2019-05-19T03:15:33.696Z,15.65
2019-05-19T03:18:02.316Z,15.35
2019-05-19T03:20:30.942Z,15.13
2019-05-19T03:22:59.744Z,15.25
2019-05-19T03:25:28.428Z,15.21
2019-05-19T03:27:57.281Z,15.18
2019-05-19T03:30:43.682Z,15.04
2019-05-19T03:33:16.907Z,15.13
2019-05-19T03:35:45.498Z,15.11
2019-05-19T03:38:14.270Z,14.92
2019-05-19T03:40:43.036Z,15.15
2019-05-19T03:43:11.812Z,15.10
2019-05-19T03:45:40.748Z,14.87
2019-05-19T03:48:09.442Z,14.99
2019-05-19T03:50:38.183Z,15.06
2019-05-19T03:53:06.911Z,15.21
2019-05-19T03:55:35.604Z,15.00
2019-05-19T03:58:04.333Z,15.01
2019-05-19T04:00:33.020Z,15.01
2019-05-19T04:03:01.653Z,15.13
2019-05-19T04:05:30.226Z,14.78
2019-05-19T04:07:58.972Z,14.73
2019-05-19T04:10:27.638Z,14.90
2019-05-19T04:12:56.381Z,15.04
2019-05-19T04:15:25.168Z,14.95
2019-05-19T04:17:53.846Z,14.94
2019-05-19T04:20:22.468Z,15.20
2019-05-19T04:22:51.188Z,14.84
2019-05-19T04:25:19.903Z,15.00
2019-05-19T04:27:48.567Z,15.75
2019-05-19T04:30:17.434Z,17.64
2019-05-19T04:32:46.089Z,18.33
2019-05-19T04:35:14.912Z,18.72
2019-05-19T04:37:43.606Z,19.07
2019-05-19T04:40:12.482Z,18.67
2019-05-19T04:42:44.171Z,18.51
2019-05-19T04:45:13.596Z,18.77
2019-05-19T04:47:42.211Z,18.57
2019-05-19T04:50:11.444Z,18.92
2019-05-19T04:52:40.125Z,19.46
2019-05-19T04:55:09.358Z,18.75
2019-05-19T04:57:38.091Z,19.71
2019-05-19T05:00:07.288Z,19.47
2019-05-19T05:02:35.942Z,19.74
2019-05-19T05:05:05.723Z,19.93
2019-05-19T05:07:34.516Z,19.69
2019-05-19T05:10:03.245Z,19.96
2019-05-19T05:12:31.902Z,19.57
2019-05-19T05:15:00.612Z,19.85
2019-05-19T05:17:29.339Z,20.61
2019-05-19T05:19:58.006Z,21.07
2019-05-19T05:22:26.626Z,21.42
2019-05-19T05:24:55.302Z,21.32
2019-05-19T05:27:24.122Z,21.08
2019-05-19T05:29:52.928Z,21.02
2019-05-19T05:32:21.701Z,20.63
2019-05-19T05:34:50.431Z,20.86
2019-05-19T05:37:19.156Z,20.16
2019-05-19T05:39:47.812Z,20.21
2019-05-19T05:42:16.469Z,20.57
2019-05-19T05:44:45.329Z,20.81
2019-05-19T05:47:14.038Z,21.22
2019-05-19T05:49:42.631Z,21.99
2019-05-19T05:52:11.418Z,22.26
2019-05-19T05:54:40.079Z,22.56
2019-05-19T05:57:08.750Z,21.89
2019-05-19T05:59:37.537Z,21.12
2019-05-19T06:02:06.260Z,21.16
2019-05-19T06:04:35.022Z,21.58
2019-05-19T06:07:03.702Z,21.95
2019-05-19T06:09:32.309Z,22.58
2019-05-19T06:12:01.031Z,22.22
2019-05-19T06:14:29.817Z,22.11
2019-05-19T06:16:58.449Z,21.99
2019-05-19T06:19:27.155Z,22.22
2019-05-19T06:21:55.859Z,21.94
2019-05-19T06:24:24.508Z,22.31
2019-05-19T06:26:53.263Z,22.54
2019-05-19T06:29:22.162Z,22.91
2019-05-19T06:31:50.995Z,23.34
2019-05-19T06:34:19.707Z,23.01
2019-05-19T06:36:48.484Z,23.23
2019-05-19T06:39:17.152Z,23.03
2019-05-19T06:41:45.877Z,23.53
2019-05-19T06:44:14.591Z,23.92
2019-05-19T06:46:43.236Z,23.35
2019-05-19T06:49:12.008Z,23.61
2019-05-19T06:51:40.674Z,23.93
2019-05-19T06:54:09.333Z,23.75
2019-05-19T06:56:38.176Z,23.83
2019-05-19T06:59:07.029Z,24.27
2019-05-19T07:01:35.743Z,24.41
2019-05-19T07:04:04.583Z,24.34
2019-05-19T07:06:34.317Z,24.37
2019-05-19T07:09:04.752Z,24.71
2019-05-19T07:11:33.451Z,24.84
2019-05-19T07:14:03.047Z,24.30
2019-05-19T07:16:31.949Z,24.91
2019-05-19T07:19:00.669Z,25.18
2019-05-19T07:21:29.398Z,25.47
2019-05-19T07:23:58.091Z,25.33
2019-05-19T07:26:27.143Z,25.67
2019-05-19T07:28:58.869Z,25.15
2019-05-19T07:31:26.345Z,24.32
2019-05-19T07:33:55.044Z,24.37
2019-05-19T07:36:23.708Z,23.67
2019-05-19T07:38:52.480Z,23.68
2019-05-19T07:41:21.194Z,23.81
2019-05-19T07:43:49.934Z,23.70
2019-05-19T07:46:18.668Z,23.80
2019-05-19T07:48:47.294Z,23.71
2019-05-19T07:51:16.044Z,23.41
2019-05-19T07:53:44.784Z,23.56
2019-05-19T07:56:13.443Z,23.49
2019-05-19T07:59:03.075Z,23.39
2019-05-19T08:01:31.710Z,23.46
2019-05-19T08:04:00.354Z,23.27
2019-05-19T08:06:28.980Z,23.38
2019-05-19T08:08:57.954Z,23.57
2019-05-19T08:11:26.563Z,23.01
2019-05-19T08:13:55.258Z,23.18
2019-05-19T08:16:23.966Z,22.93
2019-05-19T08:18:52.829Z,23.11
2019-05-19T08:21:21.450Z,23.50
2019-05-19T08:24:00.079Z,23.24
2019-05-19T08:26:20.584Z,23.47
2019-05-19T08:28:49.382Z,24.58
2019-05-19T08:31:18.047Z,24.32
2019-05-19T08:33:46.741Z,24.27
2019-05-19T08:36:15.497Z,24.27
2019-05-19T08:38:44.221Z,24.92
2019-05-19T08:41:12.914Z,25.17
2019-05-19T08:43:41.685Z,25.44
2019-05-19T08:46:11.427Z,25.94
2019-05-19T08:48:40.141Z,25.39
2019-05-19T08:51:10.472Z,25.93
2019-05-19T08:53:39.160Z,25.98
2019-05-19T08:56:10.724Z,25.58
2019-05-19T08:58:39.571Z,26.01
2019-05-19T09:01:08.289Z,26.81
2019-05-19T09:03:36.947Z,26.11
2019-05-19T09:06:05.693Z,26.55
2019-05-19T09:08:34.378Z,26.33
2019-05-19T09:11:02.996Z,27.08
2019-05-19T09:13:45.640Z,26.87
2019-05-19T09:16:21.417Z,27.27
2019-05-19T09:18:51.503Z,26.06
2019-05-19T09:21:20.140Z,26.56
2019-05-19T09:23:48.790Z,26.61
2019-05-19T09:26:17.500Z,26.56
2019-05-19T09:28:46.335Z,26.30
2019-05-19T09:31:14.918Z,26.54
2019-05-19T09:33:43.577Z,26.78
2019-05-19T09:36:12.456Z,27.61
2019-05-19T09:38:41.191Z,27.13
2019-05-19T09:41:11.568Z,27.16
2019-05-19T09:43:41.849Z,26.88
2019-05-19T09:46:13.960Z,26.90
2019-05-19T09:48:42.181Z,26.21
2019-05-19T09:51:12.460Z,25.38
2019-05-19T09:53:41.101Z,25.68
2019-05-19T09:56:09.819Z,26.05
2019-05-19T09:58:38.466Z,25.93
2019-05-19T10:01:07.194Z,26.44
2019-05-19T10:03:35.876Z,26.00
2019-05-19T10:06:04.526Z,26.90
2019-05-19T10:08:34.131Z,25.54
2019-05-19T10:11:28.825Z,25.25
2019-05-19T10:13:57.647Z,25.70
2019-05-19T10:16:26.463Z,25.27
2019-05-19T10:18:55.183Z,25.31
2019-05-19T10:21:23.938Z,25.34
2019-05-19T10:23:52.710Z,25.52
2019-05-19T10:26:21.510Z,24.81
2019-05-19T10:28:50.286Z,25.12
2019-05-19T10:31:19.044Z,25.57
2019-05-19T10:33:48.013Z,25.14
2019-05-19T10:36:16.630Z,24.82
2019-05-19T10:38:45.350Z,25.00
2019-05-19T10:41:14.029Z,25.51
2019-05-19T10:43:42.879Z,25.11
2019-05-19T10:46:11.547Z,25.15
2019-05-19T10:48:40.312Z,25.68
2019-05-19T10:51:08.964Z,25.91
2019-05-19T10:53:37.579Z,25.48
2019-05-19T10:56:06.292Z,25.35
2019-05-19T10:58:35.036Z,25.13
2019-05-19T11:01:03.816Z,25.24
2019-05-19T11:03:32.611Z,25.31
2019-05-19T11:06:01.275Z,25.45
2019-05-19T11:08:30.003Z,25.12
2019-05-19T11:10:58.623Z,25.11
2019-05-19T11:13:27.377Z,24.69
2019-05-19T11:15:56.124Z,24.69
2019-05-19T11:18:24.891Z,24.70
2019-05-19T11:20:53.679Z,24.53
2019-05-19T11:23:22.576Z,24.71
2019-05-19T11:25:51.953Z,24.80
2019-05-19T11:28:20.837Z,24.98
2019-05-19T11:30:49.543Z,25.04
2019-05-19T11:33:18.195Z,25.04
2019-05-19T11:35:46.928Z,25.11
2019-05-19T11:38:15.669Z,24.56
2019-05-19T11:40:44.416Z,25.05
2019-05-19T11:43:13.055Z,24.86
2019-05-19T11:45:41.880Z,24.46
2019-05-19T11:48:10.589Z,24.40
2019-05-19T11:50:42.000Z,24.75
2019-05-19T11:53:09.696Z,24.63
2019-05-19T11:55:38.482Z,24.69
2019-05-19T11:58:09.560Z,24.77
2019-05-19T12:00:38.253Z,24.57
2019-05-19T12:03:06.893Z,24.76
2019-05-19T12:05:35.658Z,24.59
2019-05-19T12:08:04.416Z,24.58
2019-05-19T12:10:33.130Z,24.78
2019-05-19T12:13:01.806Z,24.57
2019-05-19T12:15:30.589Z,24.42
2019-05-19T12:17:59.159Z,24.57
2019-05-19T12:20:28.228Z,24.63
2019-05-19T12:22:57.013Z,24.86
2019-05-19T12:25:25.729Z,24.39
2019-05-19T12:27:54.523Z,24.25
2019-05-19T12:30:23.361Z,24.66
2019-05-19T12:32:52.034Z,24.43
2019-05-19T12:35:21.004Z,24.44
2019-05-19T12:37:49.715Z,24.00
2019-05-19T12:40:22.446Z,24.26
2019-05-19T12:42:49.416Z,24.07
2019-05-19T12:45:18.608Z,23.91
2019-05-19T12:47:47.328Z,24.27
2019-05-19T12:50:16.057Z,24.08
2019-05-19T12:52:44.736Z,24.15
2019-05-19T12:55:13.765Z,24.15
2019-05-19T12:57:42.403Z,24.00
2019-05-19T13:00:11.267Z,23.86
2019-05-19T13:02:39.896Z,23.98
2019-05-19T13:05:08.836Z,23.83
2019-05-19T13:07:37.490Z,23.82
2019-05-19T13:10:07.553Z,23.69
2019-05-19T13:12:36.207Z,23.71
2019-05-19T13:15:07.120Z,23.74
2019-05-19T13:17:35.907Z,23.54
2019-05-19T13:20:05.492Z,23.55
2019-05-19T13:22:34.128Z,23.73
2019-05-19T13:25:02.996Z,23.66
2019-05-19T13:27:31.641Z,23.58
2019-05-19T13:30:00.418Z,23.88
2019-05-19T13:32:29.137Z,23.59
2019-05-19T13:34:57.794Z,23.81
2019-05-19T13:37:26.493Z,23.76
2019-05-19T13:39:55.271Z,23.67
2019-05-19T13:42:24.008Z,23.52
2019-05-19T13:44:52.645Z,23.42
2019-05-19T13:47:21.392Z,23.40
2019-05-19T13:49:50.132Z,23.31
2019-05-19T13:52:18.917Z,23.32
2019-05-19T13:54:47.598Z,23.31
2019-05-19T13:57:16.242Z,23.48
2019-05-19T13:59:45.048Z,23.31
2019-05-19T14:02:13.818Z,23.42
2019-05-19T14:04:42.308Z,23.30
2019-05-19T14:07:10.952Z,23.34
2019-05-19T14:09:39.713Z,23.22
2019-05-19T14:12:08.376Z,23.17
2019-05-19T14:14:37.113Z,23.23
2019-05-19T14:17:05.881Z,23.32
2019-05-19T14:19:34.655Z,23.25
2019-05-19T14:22:03.294Z,23.20
2019-05-19T14:24:32.251Z,23.13
2019-05-19T14:27:00.975Z,23.20
2019-05-19T14:29:29.615Z,23.15
2019-05-19T14:31:58.327Z,23.10
2019-05-19T14:34:27.025Z,23.05
2019-05-19T14:36:55.878Z,22.99
2019-05-19T14:39:24.568Z,23.08
2019-05-19T14:41:54.999Z,22.95
2019-05-19T14:44:23.653Z,22.97
2019-05-19T14:46:52.299Z,23.02
2019-05-19T14:49:21.006Z,22.93
2019-05-19T14:51:49.717Z,23.03
2019-05-19T14:54:18.431Z,22.93
2019-05-19T14:56:47.095Z,23.02
2019-05-19T14:59:15.761Z,23.12
2019-05-19T15:01:44.503Z,23.01
2019-05-19T15:04:13.216Z,23.22
2019-05-19T15:06:41.794Z,23.19
2019-05-19T15:09:10.568Z,23.58
2019-05-19T15:11:39.395Z,23.72
2019-05-19T15:14:08.137Z,23.60
2019-05-19T15:16:36.790Z,23.36
2019-05-19T15:19:05.662Z,23.64
2019-05-19T15:21:34.249Z,23.74
2019-05-19T15:24:02.999Z,23.52
2019-05-19T15:26:31.762Z,23.46
2019-05-19T15:29:00.417Z,23.39
2019-05-19T15:31:29.092Z,23.37
2019-05-19T15:33:57.980Z,23.37
2019-05-19T15:36:26.615Z,23.36
2019-05-19T15:38:55.382Z,23.60
2019-05-19T15:41:24.106Z,23.33
2019-05-19T15:43:52.830Z,23.32
2019-05-19T15:46:21.528Z,23.15
2019-05-19T15:48:50.158Z,23.06
2019-05-19T15:51:28.421Z,23.13
2019-05-19T15:53:50.133Z,23.08
2019-05-19T15:56:18.886Z,22.95
2019-05-19T15:58:47.461Z,22.87
2019-05-19T16:01:16.329Z,22.74
2019-05-19T16:03:45.078Z,22.87
2019-05-19T16:06:13.760Z,22.63
2019-05-19T16:08:42.480Z,22.66
2019-05-19T16:11:11.171Z,22.62
2019-05-19T16:13:39.789Z,22.58
2019-05-19T16:16:08.458Z,22.60
2019-05-19T16:18:37.167Z,22.54
2019-05-19T16:21:05.899Z,22.56
2019-05-19T16:23:34.587Z,22.44
2019-05-19T16:26:03.262Z,22.38
2019-05-19T16:28:32.015Z,22.25
2019-05-19T16:31:00.693Z,22.29
2019-05-19T16:33:29.276Z,22.33
2019-05-19T16:35:57.866Z,22.36
2019-05-19T16:38:26.643Z,22.31
2019-05-19T16:40:56.207Z,22.17
2019-05-19T16:43:26.335Z,22.02
2019-05-19T16:45:55.105Z,21.95
2019-05-19T16:48:23.786Z,22.00
2019-05-19T16:50:52.500Z,22.10
2019-05-19T16:53:21.101Z,22.17
2019-05-19T16:55:49.778Z,22.16
2019-05-19T16:58:21.462Z,22.19
2019-05-19T17:00:49.009Z,22.09
2019-05-19T17:03:17.634Z,21.94
2019-05-19T17:05:46.301Z,21.96
2019-05-19T17:08:15.005Z,21.91
2019-05-19T17:10:43.819Z,21.84
2019-05-19T17:13:12.480Z,21.73
2019-05-19T17:15:41.195Z,21.68
2019-05-19T17:18:09.978Z,21.69
2019-05-19T17:20:38.638Z,21.66
2019-05-19T17:23:07.250Z,21.63
2019-05-19T17:25:37.235Z,21.61
2019-05-19T17:28:05.866Z,21.52
2019-05-19T17:30:34.537Z,21.46
2019-05-19T17:33:03.252Z,21.44
2019-05-19T17:35:32.251Z,21.40
2019-05-19T17:38:00.964Z,21.32
2019-05-19T17:40:30.245Z,21.21
2019-05-19T17:42:59.163Z,21.19
2019-05-19T17:45:27.805Z,21.22
2019-05-19T17:48:09.200Z,21.12
2019-05-19T17:50:32.041Z,21.21
2019-05-19T17:53:00.761Z,21.12
2019-05-19T17:55:31.299Z,21.07
2019-05-19T17:58:01.478Z,21.06
2019-05-19T18:00:36.287Z,21.02
2019-05-19T18:03:06.042Z,21.06
2019-05-19T18:05:34.932Z,21.13
2019-05-19T18:08:03.784Z,21.04
2019-05-19T18:10:32.546Z,21.02
2019-05-19T18:13:01.234Z,21.01
2019-05-19T18:15:29.878Z,21.10
2019-05-19T18:17:58.572Z,21.06
2019-05-19T18:20:27.346Z,21.09
2019-05-19T18:22:56.067Z,21.02
2019-05-19T18:25:24.782Z,20.94
2019-05-19T18:27:53.557Z,20.87
2019-05-19T18:30:22.278Z,20.85
2019-05-19T18:32:51.046Z,20.85
2019-05-19T18:35:19.984Z,20.82
2019-05-19T18:37:48.713Z,20.79
2019-05-19T18:40:17.537Z,20.71
2019-05-19T18:42:46.210Z,20.68
2019-05-19T18:45:15.174Z,20.64
2019-05-19T18:47:43.792Z,20.59
2019-05-19T18:50:12.753Z,20.59
2019-05-19T18:52:41.534Z,20.52
2019-05-19T18:55:10.491Z,20.51
2019-05-19T18:57:39.123Z,20.50
2019-05-19T19:00:08.163Z,20.45
2019-05-19T19:02:36.910Z,20.46
2019-05-19T19:05:07.395Z,20.43
2019-05-19T19:07:52.634Z,20.42
2019-05-19T19:10:21.379Z,20.37
2019-05-19T19:12:50.182Z,20.34
2019-05-19T19:15:18.989Z,20.32
2019-05-19T19:17:47.677Z,20.32
2019-05-19T19:20:16.653Z,20.31
2019-05-19T19:22:45.367Z,20.25
2019-05-19T19:25:14.117Z,20.18
2019-05-19T19:27:42.760Z,20.18
2019-05-19T19:30:12.705Z,20.11
2019-05-19T19:32:41.333Z,20.06
2019-05-19T19:35:10.184Z,20.01
2019-05-19T19:37:38.877Z,19.99
2019-05-19T19:40:08.651Z,19.98
2019-05-19T19:42:37.313Z,20.06
2019-05-19T19:45:06.383Z,20.00
2019-05-19T19:47:35.122Z,20.05
2019-05-19T19:50:05.053Z,20.01
2019-05-19T19:52:33.705Z,20.03
2019-05-19T19:55:02.467Z,19.99
2019-05-19T19:57:31.220Z,19.98
2019-05-19T20:00:00.001Z,19.97
2019-05-19T20:02:28.730Z,19.93
2019-05-19T20:04:57.434Z,19.93
2019-05-19T20:07:26.196Z,19.91
2019-05-19T20:09:54.869Z,19.93
2019-05-19T20:12:23.602Z,19.90
2019-05-19T20:14:52.284Z,19.84
2019-05-19T20:17:20.991Z,19.82
2019-05-19T20:19:49.787Z,19.82
2019-05-19T20:22:18.562Z,19.79
2019-05-19T20:24:47.338Z,19.76
2019-05-19T20:27:15.935Z,19.71
2019-05-19T20:29:44.867Z,19.76
2019-05-19T20:32:13.562Z,19.78
2019-05-19T20:34:42.340Z,19.69
2019-05-19T20:37:11.042Z,19.67
2019-05-19T20:39:39.690Z,19.62
2019-05-19T20:42:08.408Z,19.60
2019-05-19T20:44:37.192Z,19.65
2019-05-19T20:47:05.909Z,19.61
2019-05-19T20:49:34.641Z,19.62
2019-05-19T20:52:03.331Z,19.59
2019-05-19T20:54:31.896Z,19.63
2019-05-19T20:57:00.657Z,19.65
2019-05-19T20:59:29.389Z,19.63
2019-05-19T21:01:58.165Z,19.67
2019-05-19T21:04:27.648Z,19.72
2019-05-19T21:06:56.398Z,19.69
2019-05-19T21:09:25.054Z,19.63
2019-05-19T21:11:53.699Z,19.63
2019-05-19T21:14:22.325Z,19.75
2019-05-19T21:16:51.045Z,19.52
2019-05-19T21:19:19.776Z,19.56
2019-05-19T21:21:48.452Z,19.56
2019-05-19T21:24:17.118Z,19.56
2019-05-19T21:26:45.738Z,19.55
2019-05-19T21:29:14.425Z,19.58
2019-05-19T21:31:43.076Z,19.52
2019-05-19T21:34:11.897Z,19.54
2019-05-19T21:36:40.815Z,19.56
2019-05-19T21:39:09.513Z,19.65
2019-05-19T21:41:38.372Z,19.69
2019-05-19T21:44:07.202Z,19.75
2019-05-19T21:46:35.875Z,19.74
2019-05-19T21:49:04.500Z,19.85
2019-05-19T21:51:33.193Z,19.82
2019-05-19T21:54:01.907Z,19.82
2019-05-19T21:56:30.548Z,19.75
2019-05-19T21:58:59.257Z,19.75
2019-05-19T22:01:28.089Z,19.66
2019-05-19T22:03:56.820Z,19.65
2019-05-19T22:06:27.273Z,19.50
2019-05-19T22:08:55.837Z,19.24
2019-05-19T22:11:24.656Z,19.21
2019-05-19T22:13:53.413Z,19.00
2019-05-19T22:16:22.071Z,19.04
2019-05-19T22:18:50.807Z,18.81
2019-05-19T22:21:19.509Z,18.80
2019-05-19T22:23:48.236Z,18.72
2019-05-19T22:26:16.874Z,18.62
2019-05-19T22:28:45.654Z,19.02
2019-05-19T22:31:14.368Z,18.87
2019-05-19T22:33:43.176Z,18.70
2019-05-19T22:36:11.781Z,18.86
2019-05-19T22:38:40.475Z,18.70
2019-05-19T22:41:09.235Z,18.50
2019-05-19T22:43:37.818Z,18.54
2019-05-19T22:46:06.563Z,18.34
2019-05-19T22:48:35.266Z,18.57
2019-05-19T22:51:03.913Z,18.37
2019-05-19T22:53:32.896Z,18.05
2019-05-19T22:56:01.696Z,18.32
2019-05-19T22:58:30.388Z,18.43
2019-05-19T23:00:59.110Z,18.22
2019-05-19T23:03:27.751Z,17.87
2019-05-19T23:05:56.404Z,17.97
2019-05-19T23:08:25.162Z,17.65
2019-05-19T23:10:53.800Z,17.75
2019-05-19T23:13:22.462Z,17.54
2019-05-19T23:15:51.157Z,17.76
2019-05-19T23:18:19.874Z,17.45
2019-05-19T23:20:48.502Z,17.23
2019-05-19T23:23:17.186Z,16.88
2019-05-19T23:25:45.802Z,17.18
2019-05-19T23:28:14.317Z,17.00
2019-05-19T23:30:43.245Z,17.18
2019-05-19T23:33:11.915Z,17.12
2019-05-19T23:35:40.508Z,17.12
2019-05-19T23:38:09.198Z,17.07
2019-05-19T23:40:37.964Z,17.10
2019-05-19T23:43:06.691Z,17.27
2019-05-19T23:45:35.391Z,17.34
2019-05-19T23:48:04.051Z,16.79
2019-05-19T23:50:32.757Z,16.96
2019-05-19T23:53:01.454Z,16.96
2019-05-19T23:55:30.118Z,16.96
2019-05-19T23:57:58.800Z,16.91
